createdAt,value
2019-04-29T00:00:06.782Z,598.13
2019-04-29T00:05:12.757Z,601.30
2019-04-29T00:10:19.180Z,593.03
2019-04-29T00:15:42.813Z,762.27
2019-04-29T00:20:53.403Z,550.40
2019-04-29T00:25:59.468Z,517.47
2019-04-29T00:31:05.954Z,692.60
2019-04-29T00:36:12.097Z,593.63
2019-04-29T00:41:18.130Z,705.87
2019-04-29T00:51:30.149Z,873.95
2019-04-29T00:56:36.344Z,957.80
2019-04-29T01:01:44.235Z,1210.55
2019-04-29T01:17:02.919Z,1159.47
2019-04-29T01:22:09.187Z,1137.18
2019-04-29T01:32:26.974Z,1105.25
2019-04-29T01:37:34.994Z,1011.27
2019-04-29T01:42:42.653Z,1387.48
2019-04-29T01:47:49.641Z,1325.90
2019-04-29T01:52:56.685Z,1181.38
2019-04-29T01:58:05.315Z,1086.30
2019-04-29T02:03:13.966Z,1170.15
2019-04-29T02:08:24.565Z,1217.65
2019-04-29T02:13:32.372Z,1355.80
2019-04-29T02:23:46.798Z,1256.83
2019-04-29T02:28:52.776Z,1063.67
2019-04-29T02:33:58.739Z,940.30
2019-04-29T02:39:17.151Z,1290.80
2019-04-29T02:49:29.970Z,1066.85
2019-04-29T02:54:36.144Z,944.08
2019-04-29T02:59:43.731Z,851.70
2019-04-29T03:05:39.870Z,694.55
2019-04-29T03:10:45.468Z,663.03
2019-04-29T03:15:52.078Z,501.73
2019-04-29T03:20:59.650Z,642.20
2019-04-29T03:26:06.557Z,745.37
2019-04-29T03:31:13.760Z,834.10
2019-04-29T03:36:19.939Z,745.70
2019-04-29T03:41:26.071Z,993.30
2019-04-29T03:51:38.464Z,897.17
2019-04-29T03:56:45.643Z,994.07
2019-04-29T04:07:27.417Z,1576.20
2019-04-29T04:12:34.430Z,1638.97
2019-04-29T04:17:42.153Z,1581.83
2019-04-29T04:22:51.376Z,1509.20
2019-04-29T04:27:57.520Z,1422.57
2019-04-29T04:33:05.495Z,1234.07
2019-04-29T04:38:12.241Z,1007.00
2019-04-29T04:43:19.099Z,992.53
2019-04-29T04:48:25.584Z,698.88
2019-04-29T04:53:34.841Z,606.73
2019-04-29T04:58:45.779Z,427.83
2019-04-29T05:03:51.801Z,376.90
2019-04-29T05:14:09.139Z,215.70
2019-04-29T05:19:15.201Z,166.95
2019-04-29T05:24:21.369Z,107.03
2019-04-29T05:29:28.756Z,83.47
2019-04-29T05:34:36.651Z,67.97
2019-04-29T05:39:44.272Z,66.00
2019-04-29T05:50:18.586Z,52.90
2019-04-29T05:55:24.590Z,54.07
2019-04-29T06:00:31.284Z,51.40
2019-04-29T06:05:37.350Z,49.57
2019-04-29T06:10:43.328Z,38.50
2019-04-29T06:15:49.345Z,43.87
2019-04-29T06:21:08.403Z,40.90
2019-04-29T06:26:04.009Z,405.13
2019-04-29T06:31:09.923Z,85.03
2019-04-29T06:36:16.188Z,274.07
2019-04-29T06:46:28.079Z,685.43
2019-04-29T06:51:34.135Z,536.30
2019-04-29T06:56:40.184Z,698.73
2019-04-29T07:01:46.408Z,547.03
2019-04-29T07:06:57.533Z,597.87
2019-04-29T07:12:01.632Z,624.03
2019-04-29T07:17:07.493Z,945.27
2019-04-29T07:22:14.590Z,1270.10
2019-04-29T07:27:20.766Z,1092.03
2019-04-29T07:32:26.733Z,1208.80
2019-04-29T07:37:34.112Z,1198.57
2019-04-29T07:42:40.733Z,1197.37
2019-04-29T07:47:56.319Z,1051.73
2019-04-29T07:52:56.152Z,913.03
2019-04-29T07:58:02.199Z,789.13
2019-04-29T08:03:08.144Z,646.63
2019-04-29T08:08:16.674Z,493.50
2019-04-29T08:13:22.200Z,322.20
2019-04-29T08:18:28.370Z,201.93
2019-04-29T08:33:48.622Z,69.67
2019-04-29T08:39:07.737Z,46.90
2019-04-29T08:44:16.400Z,37.80
2019-04-29T08:49:22.027Z,35.03
2019-04-29T08:54:27.883Z,32.13
2019-04-29T08:59:33.747Z,31.57
2019-04-29T09:04:52.764Z,28.50
2019-04-29T09:15:22.452Z,31.23
2019-04-29T09:20:28.485Z,27.90
2019-04-29T09:25:45.476Z,26.37
2019-04-29T09:30:51.655Z,26.13
2019-04-29T09:35:57.624Z,26.03
2019-04-29T09:41:06.281Z,22.70
2019-04-29T09:46:19.700Z,23.90
2019-04-29T09:51:27.967Z,24.10
2019-04-29T09:56:34.749Z,21.70
2019-04-29T10:06:50.018Z,22.00
2019-04-29T10:22:10.714Z,22.43
2019-04-29T10:27:16.583Z,21.70
2019-04-29T10:32:22.550Z,23.57
2019-04-29T10:37:31.491Z,22.43
2019-04-29T10:42:51.803Z,24.40
2019-04-29T10:47:59.408Z,22.73
2019-04-29T10:53:05.583Z,22.93
2019-04-29T10:58:11.657Z,23.00
2019-04-29T11:03:20.725Z,20.23
2019-04-29T11:08:27.029Z,19.20
2019-04-29T11:13:33.041Z,18.43
2019-04-29T11:18:39.430Z,17.20
2019-04-29T11:23:50.659Z,19.00
2019-04-29T11:28:59.059Z,17.63
2019-04-29T11:34:11.518Z,17.25
2019-04-29T11:39:18.571Z,17.80
2019-04-29T11:49:33.705Z,19.33
2019-04-29T11:54:39.860Z,18.48
2019-04-29T11:59:50.441Z,17.77
2019-04-29T12:04:58.016Z,18.87
2019-04-29T12:10:06.450Z,17.50
2019-04-29T12:15:25.762Z,19.63
2019-04-29T12:20:33.372Z,18.98
2019-04-29T12:25:39.364Z,18.40
2019-04-29T12:30:49.526Z,19.50
2019-04-29T12:36:03.418Z,18.40
2019-04-29T12:41:21.309Z,14.80
2019-04-29T12:46:44.290Z,14.13
2019-04-29T12:51:50.403Z,13.33
2019-04-29T12:56:56.444Z,14.78
2019-04-29T13:02:14.145Z,13.87
2019-04-29T13:07:24.764Z,13.90
2019-04-29T13:12:30.837Z,15.50
2019-04-29T13:17:47.670Z,14.77
2019-04-29T13:22:53.526Z,15.20
2019-04-29T13:28:03.912Z,15.53
2019-04-29T13:33:16.422Z,14.23
2019-04-29T13:38:18.610Z,20.02
2019-04-29T13:43:26.272Z,33.57
2019-04-29T13:48:54.801Z,25.27
2019-04-29T13:53:44.460Z,23.70
2019-04-29T13:58:51.687Z,89.10
2019-04-29T14:04:02.493Z,101.53
2019-04-29T14:09:11.126Z,378.27
2019-04-29T14:14:22.685Z,145.40
2019-04-29T14:19:44.787Z,133.37
2019-04-29T14:24:37.171Z,358.00
2019-04-29T14:29:43.465Z,372.67
2019-04-29T14:34:50.915Z,374.10
2019-04-29T14:39:57.071Z,560.97
2019-04-29T14:45:21.594Z,636.53
2019-04-29T14:50:28.060Z,686.03
2019-04-29T14:55:34.131Z,866.23
2019-04-29T15:00:49.208Z,636.40
2019-04-29T15:05:55.493Z,460.57
2019-04-29T15:11:04.133Z,335.73
2019-04-29T15:16:35.139Z,214.72
2019-04-29T15:21:44.871Z,109.43
2019-04-29T15:26:50.320Z,49.57
2019-04-29T15:31:56.288Z,25.13
2019-04-29T15:37:02.283Z,19.00
2019-04-29T15:42:08.798Z,16.57
2019-04-29T15:52:25.687Z,12.23
2019-04-29T15:57:28.706Z,9.80
2019-04-29T16:13:07.652Z,8.70
2019-04-29T16:18:14.878Z,8.00
2019-04-29T16:23:21.443Z,8.60
2019-04-29T16:28:31.593Z,8.30
2019-04-29T16:38:41.021Z,7.87
2019-04-29T16:43:48.547Z,6.70
2019-04-29T16:54:00.284Z,7.73
2019-04-29T17:04:13.897Z,7.37
2019-04-29T17:09:23.131Z,7.90
2019-04-29T17:14:29.448Z,7.60
2019-04-29T17:19:35.271Z,7.55
2019-04-29T17:24:41.340Z,7.73
2019-04-29T17:30:03.487Z,8.27
2019-04-29T17:35:10.640Z,6.83
2019-04-29T17:35:15.989Z,7.70
2019-04-29T17:40:19.410Z,7.83
2019-04-29T17:45:31.009Z,8.13
2019-04-29T17:56:05.406Z,8.40
2019-04-29T18:01:31.992Z,8.73
2019-04-29T18:06:39.275Z,8.23
2019-04-29T18:11:51.654Z,8.43
2019-04-29T18:16:53.077Z,9.10
2019-04-29T18:22:16.609Z,10.70
2019-04-29T18:27:25.302Z,12.63
2019-04-29T18:32:35.671Z,11.07
2019-04-29T18:42:48.353Z,13.53
2019-04-29T18:47:52.611Z,13.53
2019-04-29T18:52:58.587Z,13.30
2019-04-29T18:58:05.790Z,14.83
2019-04-29T19:03:14.866Z,17.57
2019-04-29T19:08:23.402Z,15.77
2019-04-29T19:13:30.790Z,12.70
2019-04-29T19:18:37.347Z,16.60
2019-04-29T19:23:43.034Z,71.90
2019-04-29T19:28:49.141Z,339.83
2019-04-29T19:49:15.807Z,833.27
2019-04-29T19:59:30.389Z,1060.27
2019-04-29T20:04:38.979Z,1001.50
2019-04-29T20:09:48.264Z,970.20
2019-04-29T20:14:58.287Z,938.17
2019-04-29T20:20:08.804Z,884.50
2019-04-29T20:30:23.326Z,813.40
2019-04-29T20:35:29.559Z,710.37
2019-04-29T20:40:41.525Z,653.07
2019-04-29T20:45:45.316Z,590.23
2019-04-29T20:50:52.742Z,433.20
2019-04-29T20:56:09.554Z,290.50
2019-04-29T21:01:11.097Z,329.93
2019-04-29T21:06:16.428Z,224.90
2019-04-29T21:11:27.289Z,411.30
2019-04-29T21:16:57.353Z,587.23
2019-04-29T21:22:01.141Z,354.83
2019-04-29T21:27:07.165Z,550.27
2019-04-29T21:32:13.151Z,518.50
2019-04-29T21:42:35.213Z,827.33
2019-04-29T21:47:42.660Z,663.40
2019-04-29T21:52:44.784Z,515.23
2019-04-29T21:57:54.541Z,360.48
2019-04-29T22:03:00.815Z,240.23
2019-04-29T22:08:06.672Z,146.00
2019-04-29T22:13:12.542Z,99.30
2019-04-29T22:23:28.480Z,53.43
2019-04-29T22:28:35.131Z,49.23
2019-04-29T22:38:48.640Z,36.20
2019-04-29T22:43:59.042Z,39.27
2019-04-29T22:49:05.824Z,34.30
2019-04-29T22:54:12.086Z,36.27
2019-04-29T22:59:19.137Z,34.40
2019-04-29T23:04:25.676Z,38.77
2019-04-29T23:09:31.544Z,37.03
2019-04-29T23:14:40.255Z,34.97
2019-04-29T23:24:59.588Z,38.27
2019-04-29T23:30:05.758Z,38.50
2019-04-29T23:35:11.626Z,35.70
2019-04-29T23:45:25.145Z,38.93
2019-04-29T23:50:31.290Z,39.00
2019-04-29T23:55:37.290Z,38.83
